createdAt,value
2022-08-17T00:03:33.223Z,100422.19
2022-08-17T00:08:33.867Z,100421.13
2022-08-17T00:13:36.169Z,100427.50
2022-08-17T00:18:58.327Z,100401.91
2022-08-17T00:23:56.139Z,100386.38
2022-08-17T00:28:57.915Z,100392.56
2022-08-17T00:33:56.673Z,100390.66
2022-08-17T00:38:58.062Z,100394.69
2022-08-17T00:44:00.853Z,100386.69
2022-08-17T00:48:59.687Z,100393.56
2022-08-17T00:54:08.101Z,100409.34
2022-08-17T00:59:07.075Z,100407.47
2022-08-17T01:04:06.691Z,100389.31
2022-08-17T01:09:08.856Z,100382.59
2022-08-17T01:14:10.427Z,100383.66
2022-08-17T01:19:20.335Z,100390.31
2022-08-17T01:24:19.359Z,100403.47
2022-08-17T01:29:20.840Z,100387.97
2022-08-17T01:34:22.256Z,100397.75
2022-08-17T01:39:44.706Z,100414.56
2022-08-17T01:44:46.929Z,100402.31
2022-08-17T01:49:48.192Z,100390.81
2022-08-17T01:54:49.680Z,100399.66
2022-08-17T01:59:49.894Z,100405.84
2022-08-17T02:04:50.793Z,100380.22
2022-08-17T02:09:52.943Z,100408.50
2022-08-17T02:14:56.250Z,100405.78
2022-08-17T02:19:57.768Z,100389.25
2022-08-17T02:25:02.329Z,100399.97
2022-08-17T02:30:00.961Z,100393.25
2022-08-17T02:35:01.611Z,100386.28
2022-08-17T02:40:03.227Z,100400.44
2022-08-17T02:45:07.834Z,100422.50
2022-08-17T02:50:07.913Z,100398.72
2022-08-17T02:55:16.277Z,100411.63
2022-08-17T03:00:23.905Z,100415.47
2022-08-17T03:05:26.490Z,100398.41
2022-08-17T03:10:25.742Z,100414.22
2022-08-17T03:15:30.682Z,100397.84
2022-08-17T03:20:31.970Z,100401.69
2022-08-17T03:25:34.793Z,100402.00
2022-08-17T03:30:37.046Z,100411.75
2022-08-17T03:35:40.641Z,100414.09
2022-08-17T03:40:56.514Z,100426.84
2022-08-17T03:46:28.369Z,100450.41
2022-08-17T03:51:54.938Z,100440.34
2022-08-17T03:57:06.517Z,100440.84
2022-08-17T04:02:11.058Z,100459.22
2022-08-17T04:07:10.867Z,100453.91
2022-08-17T04:12:09.790Z,100444.84
2022-08-17T04:17:07.968Z,100448.84
2022-08-17T04:22:32.024Z,100460.84
2022-08-17T04:27:43.663Z,100475.88
2022-08-17T04:33:04.150Z,100466.91
2022-08-17T04:38:18.770Z,100478.38
2022-08-17T04:43:20.434Z,100481.06
2022-08-17T04:48:21.304Z,100481.41
2022-08-17T04:53:20.101Z,100466.97
2022-08-17T04:58:19.716Z,100473.09
2022-08-17T05:03:21.157Z,100474.81
2022-08-17T05:08:22.968Z,100485.69
2022-08-17T05:13:24.711Z,100490.63
2022-08-17T05:18:24.557Z,100477.03
2022-08-17T05:23:25.333Z,100461.59
2022-08-17T05:28:27.402Z,100493.13
2022-08-17T05:33:33.690Z,100492.59
2022-08-17T05:38:35.558Z,100483.00
2022-08-17T05:43:37.951Z,100478.75
2022-08-17T05:48:48.329Z,100505.38
2022-08-17T05:53:52.316Z,100474.69
2022-08-17T05:59:27.208Z,100505.38
2022-08-17T06:04:51.434Z,100502.47
2022-08-17T06:10:09.063Z,100504.06
2022-08-17T06:15:33.527Z,100511.47
2022-08-17T06:20:54.086Z,100491.22
2022-08-17T06:26:01.622Z,100481.03
2022-08-17T06:31:07.032Z,100510.31
2022-08-17T06:36:17.818Z,100482.78
2022-08-17T06:41:24.619Z,100500.84
2022-08-17T06:46:43.129Z,100481.06
2022-08-17T06:52:00.922Z,100477.22
2022-08-17T06:57:29.134Z,100471.75
2022-08-17T07:02:53.181Z,100495.13
2022-08-17T07:08:20.886Z,100483.97
2022-08-17T07:13:38.333Z,100509.25
2022-08-17T07:18:36.681Z,100501.97
2022-08-17T07:24:29.281Z,100490.66
2022-08-17T07:29:33.239Z,100489.44
2022-08-17T07:34:40.046Z,100511.75
2022-08-17T07:40:15.278Z,100494.59
2022-08-17T07:45:20.272Z,100503.63
2022-08-17T07:50:29.602Z,100486.53
2022-08-17T07:55:29.980Z,100490.38
2022-08-17T08:00:32.389Z,100504.03
2022-08-17T08:05:50.074Z,100494.94
2022-08-17T08:11:04.735Z,100478.16
2022-08-17T08:16:35.648Z,100460.66
2022-08-17T08:21:55.206Z,100473.94
2022-08-17T08:27:28.116Z,100460.16
2022-08-17T08:32:43.312Z,100490.41
2022-08-17T08:37:47.119Z,100488.09
2022-08-17T08:43:04.165Z,100482.03
2022-08-17T08:48:12.718Z,100479.75
2022-08-17T08:53:33.144Z,100475.72
2022-08-17T08:59:15.191Z,100472.19
2022-08-17T09:05:12.781Z,100446.69
2022-08-17T09:10:28.213Z,100469.53
2022-08-17T09:15:32.278Z,100434.84
2022-08-17T09:20:50.673Z,100454.75
2022-08-17T09:26:13.116Z,100456.50
2022-08-17T09:31:17.783Z,100462.28
2022-08-17T09:36:27.391Z,100452.19
2022-08-17T09:41:57.305Z,100451.63
2022-08-17T09:47:36.603Z,100443.34
2022-08-17T09:52:38.455Z,100455.91
2022-08-17T09:57:45.238Z,100463.56
2022-08-17T10:02:54.285Z,100464.63
2022-08-17T10:08:16.606Z,100445.59
2022-08-17T10:13:47.221Z,100456.81
2022-08-17T10:19:16.430Z,100449.63
2022-08-17T10:25:21.197Z,100439.41
2022-08-17T10:30:31.711Z,100427.66
2022-08-17T10:35:34.171Z,100422.09
2022-08-17T10:40:46.006Z,100423.63
2022-08-17T10:46:09.532Z,100429.78
2022-08-17T10:51:40.725Z,100413.63
2022-08-17T10:56:47.327Z,100379.19
2022-08-17T11:02:04.455Z,100394.66
2022-08-17T11:07:28.093Z,100362.44
2022-08-17T11:12:39.843Z,100377.09
2022-08-17T11:17:52.756Z,100403.13
2022-08-17T11:23:07.769Z,100385.41
2022-08-17T11:28:40.211Z,100360.00
2022-08-17T11:33:50.222Z,100377.44
2022-08-17T11:39:23.347Z,100355.09
2022-08-17T11:44:32.142Z,100346.16
2022-08-17T11:50:37.839Z,100372.34
2022-08-17T11:56:19.619Z,100365.13
2022-08-17T12:01:29.561Z,100353.41
2022-08-17T12:06:50.713Z,100359.34
2022-08-17T12:12:12.818Z,100358.84
2022-08-17T12:17:39.713Z,100326.06
2022-08-17T12:23:01.433Z,100345.69
2022-08-17T12:28:04.815Z,100323.75
2022-08-17T12:33:28.042Z,100306.13
2022-08-17T12:38:33.180Z,100344.22
2022-08-17T12:43:33.875Z,100298.69
2022-08-17T12:48:58.780Z,100287.53
2022-08-17T12:54:03.441Z,100315.44
2022-08-17T12:59:02.443Z,100332.06
2022-08-17T13:04:07.805Z,100313.91
2022-08-17T13:09:14.464Z,100292.53
2022-08-17T13:14:12.528Z,100281.09
2022-08-17T13:19:18.971Z,100287.19
2022-08-17T13:24:38.760Z,100291.94
2022-08-17T13:29:54.635Z,100283.03
2022-08-17T13:35:15.085Z,100282.59
2022-08-17T13:40:20.251Z,100312.72
2022-08-17T13:45:36.103Z,100320.97
2022-08-17T13:50:45.813Z,100283.44
2022-08-17T13:56:01.860Z,100278.09
2022-08-17T14:01:36.338Z,100298.75
2022-08-17T14:06:52.862Z,100280.00
2022-08-17T14:11:57.089Z,100306.50
2022-08-17T14:16:57.708Z,100317.34
2022-08-17T14:22:02.152Z,100308.66
2022-08-17T14:27:01.788Z,100306.28
2022-08-17T14:32:05.722Z,100298.66
2022-08-17T14:37:07.079Z,100304.88
2022-08-17T14:42:05.665Z,100291.00
2022-08-17T14:47:04.638Z,100304.63
2022-08-17T14:52:03.736Z,100279.63
2022-08-17T14:57:23.360Z,100308.16
2022-08-17T15:02:31.118Z,100304.81
2022-08-17T15:07:37.691Z,100316.44
2022-08-17T15:12:45.844Z,100297.59
2022-08-17T15:17:48.895Z,100277.78
2022-08-17T15:28:11.227Z,100281.94
2022-08-17T15:33:29.979Z,100300.88
2022-08-17T15:38:36.925Z,100294.16
2022-08-17T15:43:39.028Z,100325.28
2022-08-17T15:49:12.361Z,100333.06
2022-08-17T16:00:31.282Z,100324.22
2022-08-17T16:06:41.333Z,100346.13
2022-08-17T16:11:30.027Z,100358.59
2022-08-17T16:16:31.507Z,100339.91
2022-08-17T16:21:31.168Z,100369.16
2022-08-17T16:26:47.396Z,100372.06
2022-08-17T16:31:49.301Z,100373.00
2022-08-17T16:37:02.996Z,100357.91
2022-08-17T16:42:06.241Z,100340.81
2022-08-17T16:47:10.846Z,100390.13
2022-08-17T16:52:32.567Z,100349.38
2022-08-17T16:57:37.811Z,100395.88
2022-08-17T17:03:22.478Z,100406.88
2022-08-17T17:08:38.414Z,100421.50
2022-08-17T17:14:21.144Z,100377.91
2022-08-17T17:19:35.096Z,100426.09
2022-08-17T17:24:49.959Z,100392.75
2022-08-17T17:29:58.340Z,100407.94
2022-08-17T17:35:02.346Z,100405.88
2022-08-17T17:40:13.103Z,100421.88
2022-08-17T17:45:33.645Z,100441.72
2022-08-17T17:51:10.986Z,100427.59
2022-08-17T17:56:57.186Z,100414.69
2022-08-17T18:02:00.511Z,100452.34
2022-08-17T18:07:13.691Z,100415.63
2022-08-17T18:12:26.191Z,100465.53
2022-08-17T18:17:30.044Z,100429.63
2022-08-17T18:22:31.295Z,100463.06
2022-08-17T18:27:34.603Z,100451.13
2022-08-17T18:32:41.356Z,100457.97
2022-08-17T18:37:55.859Z,100479.75
2022-08-17T18:42:59.769Z,100477.69
2022-08-17T18:48:00.961Z,100466.53
2022-08-17T18:53:34.203Z,100482.50
2022-08-17T18:58:51.070Z,100429.00
2022-08-17T19:03:49.584Z,100470.78
2022-08-17T19:08:50.393Z,100468.81
2022-08-17T19:14:21.495Z,100479.56
2022-08-17T19:19:36.780Z,100506.31
2022-08-17T19:24:47.961Z,100444.34
2022-08-17T19:29:52.533Z,100493.69
2022-08-17T19:34:54.417Z,100464.44
2022-08-17T19:40:24.517Z,100471.34
2022-08-17T19:45:50.330Z,100474.25
2022-08-17T19:50:57.552Z,100500.00
2022-08-17T19:55:58.691Z,100497.38
2022-08-17T20:00:58.850Z,100482.47
2022-08-17T20:06:12.705Z,100469.91
2022-08-17T20:11:26.802Z,100482.31
2022-08-17T20:16:24.982Z,100478.03
2022-08-17T20:21:49.732Z,100492.53
2022-08-17T20:26:58.114Z,100523.19
2022-08-17T20:32:01.279Z,100519.56
2022-08-17T20:37:01.105Z,100500.44
2022-08-17T20:42:25.796Z,100486.38
2022-08-17T20:47:47.026Z,100514.63
2022-08-17T20:53:03.164Z,100491.06
2022-08-17T20:58:17.401Z,100518.81
2022-08-17T21:03:32.236Z,100515.69
2022-08-17T21:09:13.686Z,100514.53
2022-08-17T21:14:19.946Z,100497.00
2022-08-17T21:20:00.203Z,100481.19
2022-08-17T21:25:35.328Z,100495.56
2022-08-17T21:30:32.757Z,100510.97
2022-08-17T21:36:01.593Z,100459.00
2022-08-17T21:41:01.792Z,100474.56
2022-08-17T21:46:05.150Z,100473.41
2022-08-17T21:51:08.408Z,100517.84
2022-08-17T21:56:07.621Z,100477.28
2022-08-17T22:01:30.560Z,100512.09
2022-08-17T22:06:31.231Z,100522.72
2022-08-17T22:11:29.792Z,100486.03
2022-08-17T22:16:30.869Z,100477.75
2022-08-17T22:21:28.678Z,100468.63
2022-08-17T22:26:49.964Z,100507.00
2022-08-17T22:31:57.730Z,100476.09
2022-08-17T22:37:26.714Z,100514.91
2022-08-17T22:42:26.257Z,100501.09
2022-08-17T22:47:32.485Z,100462.59
2022-08-17T22:53:22.794Z,100493.88
2022-08-17T22:58:44.183Z,100501.38
2022-08-17T23:04:13.165Z,100487.25
2022-08-17T23:09:15.110Z,100485.78
2022-08-17T23:14:14.691Z,100482.28
2022-08-17T23:19:21.759Z,100493.00
2022-08-17T23:24:24.948Z,100493.41
2022-08-17T23:29:32.752Z,100509.53
2022-08-17T23:34:31.368Z,100522.78
2022-08-17T23:39:29.793Z,100502.72
2022-08-17T23:44:31.823Z,100522.75
2022-08-17T23:49:30.086Z,100487.78
2022-08-17T23:54:49.260Z,100485.94
2022-08-17T23:59:51.238Z,100495.78
